Glasston, ND (58236)

8:46 AM CST on February 25, 2017 (GMT -0600)
North Crystal | | Change Station

Elev 919 ft 48.62 °N, 97.71 °W | Updated 10 minutes ago

Mostly Cloudy
Mostly Cloudy
22.5 °F
Feels Like 22 °F
N
0.0
Wind Variable Wind from WSW
Gusts 1.0 mph

Today
High -- | Low -- °F
--% Chance of Precip.
Yesterday
High -- | Low -- °F
Precip. -- in
Pressure 29.88 in
Visibility 10.0 miles
Clouds Few 4800 ft
Scattered Clouds 6000 ft
Windchill 22 °F
Dew Point 19 °F
Humidity 87%
Rainfall 0.00 in
Snow Depth Not available.
7:18 AM 6:07 PM
Waning Crescent, 1% visible
METAR KGAF 251435Z AUTO 25007KT 10SM FEW048 SCT060 M06/M07 A2988 RMK AO2
Pressure 29.88 in
Visibility 10.0 miles
Clouds Few 4800 ft
Scattered Clouds 6000 ft
Windchill 22 °F
Dew Point 19 °F
Humidity 87%
Rainfall 0.00 in
Snow Depth Not available.
7:18 AM 6:07 PM
Waning Crescent, 1% visible
METAR KGAF 251435Z AUTO 25007KT 10SM FEW048 SCT060 M06/M07 A2988 RMK AO2

Get Your Daily Forecast Email!

Thanks for signing up!

Be on the lookout for a verification email in your inbox.

You'll start receiving the daily forecast at 8 AM.

×

10-Day Weather Forecast

Almanac

Astronomy

Feb. 25, 2017 Rise Set
Actual Time
Civil Twilight
Nautical Twilight
Astronomical Twilight
Moon
Length of Visible Light
Length of Day
Tomorrow will be .
, % of the Moon is Illuminated

Today's Extremes

State Highs State Lows

Community

WunderPhotos

Upload Photos

1,962,540 photos uploaded!

WunderBlog® & News

Nearby

Air Quality

  Air Quality AQ Index Pollutant
Not available.

Snow Depth

Station Depth Elevation

Earthquake Activity

City Distance Mag. Time & Date
Minimum magnitude displayed is 2.5.

Coastal Water Temperatures

Place Temperature

Stations

Nearby Weather Stations

Station Location Temp. Windchill Dew Point Humidity Wind Precip. Elev Updated Type
                   

Watches & Warnings

There are currently no watches in effect.